Time;durP1;ratioP1;P1;durP2;ratioP2;P2;SDS_P1;SDS_P2;PMS_P1;PMS_P2;Temp;Humidity;BMP_temperature;BMP_pressure;BME280_temperature;BME280_humidity;BME280_pressure;Samples;Min_cycle;Max_cycle;Signal;HPM_P1;HPM_P2
2021/06/30 00:01:02;;;;;;;5.47;2.25;;;18.30;99.90;;;;;;5077433;28;20194;-72
2021/06/30 00:03:28;;;;;;;5.50;2.40;;;18.40;99.90;;;;;;5073033;28;20202;-72
2021/06/30 00:05:55;;;;;;;3.05;2.35;;;18.40;99.90;;;;;;5071597;28;20314;-72
2021/06/30 00:08:22;;;;;;;7.53;2.53;;;18.30;99.90;;;;;;5055944;28;20215;-72
2021/06/30 00:10:50;;;;;;;6.75;2.10;;;18.30;99.90;;;;;;5067679;28;20216;-72
2021/06/30 00:13:17;;;;;;;8.45;2.50;;;18.30;99.90;;;;;;5068438;28;20659;-73
2021/06/30 00:15:45;;;;;;;8.43;2.40;;;18.40;99.90;;;;;;5065992;28;20197;-72
2021/06/30 00:18:12;;;;;;;5.07;2.50;;;18.40;99.90;;;;;;5063647;28;20288;-72
2021/06/30 00:20:40;;;;;;;5.55;2.85;;;18.40;99.90;;;;;;5072553;28;20209;-73
2021/06/30 00:23:06;;;;;;;5.55;2.67;;;18.40;99.90;;;;;;5069269;28;20206;-72
2021/06/30 00:25:33;;;;;;;9.57;2.72;;;18.40;99.90;;;;;;5063710;28;20226;-73
2021/06/30 00:28:02;;;;;;;5.55;2.72;;;18.40;99.90;;;;;;5064876;28;20576;-72
2021/06/30 00:30:29;;;;;;;4.75;2.65;;;18.40;99.90;;;;;;5070264;28;20206;-73
2021/06/30 00:32:57;;;;;;;4.03;2.30;;;18.40;99.90;;;;;;5053942;28;20650;-73
2021/06/30 00:35:24;;;;;;;10.65;2.83;;;18.40;99.90;;;;;;5061073;28;20553;-72
2021/06/30 00:37:51;;;;;;;7.18;2.25;;;18.40;99.90;;;;;;5073305;28;20203;-73
2021/06/30 00:40:19;;;;;;;7.20;2.38;;;18.40;99.90;;;;;;5070675;28;20213;-73
2021/06/30 00:42:46;;;;;;;6.70;2.25;;;18.40;99.90;;;;;;5072847;28;20556;-72
2021/06/30 00:45:19;;;;;;;2.30;1.98;;;18.30;99.90;;;;;;5066344;28;20226;-72
2021/06/30 00:47:46;;;;;;;2.28;1.60;;;18.30;99.90;;;;;;5053203;28;20293;-72
2021/06/30 00:50:15;;;;;;;4.18;1.98;;;18.30;99.90;;;;;;5064647;28;20308;-73
2021/06/30 00:52:42;;;;;;;4.88;1.80;;;18.30;99.90;;;;;;5062648;28;20210;-73
2021/06/30 00:55:10;;;;;;;3.20;1.60;;;18.30;99.90;;;;;;5071329;28;20198;-73
2021/06/30 00:57:37;;;;;;;3.40;1.73;;;18.30;99.90;;;;;;5072603;28;20342;-72
2021/06/30 01:00:07;;;;;;;4.07;1.85;;;18.30;99.90;;;;;;5071750;28;20199;-73
2021/06/30 01:02:35;;;;;;;4.50;1.92;;;18.30;99.90;;;;;;5055754;28;20215;-72
2021/06/30 01:05:03;;;;;;;3.65;2.03;;;18.40;99.90;;;;;;5053195;28;20206;-72
2021/06/30 01:07:30;;;;;;;2.28;1.83;;;18.40;99.90;;;;;;5067898;28;20579;-72
2021/06/30 01:09:57;;;;;;;5.43;2.05;;;18.30;99.90;;;;;;5071026;28;20202;-72
2021/06/30 01:12:23;;;;;;;3.28;1.90;;;18.30;99.90;;;;;;5072391;28;20206;-73
2021/06/30 01:14:50;;;;;;;6.38;2.20;;;18.30;99.90;;;;;;5070971;28;20293;-73
2021/06/30 01:17:17;;;;;;;3.30;2.00;;;18.20;99.90;;;;;;5072526;28;20199;-72
2021/06/30 01:19:45;;;;;;;3.47;2.10;;;18.20;99.90;;;;;;5056124;28;20195;-72
2021/06/30 01:22:12;;;;;;;5.80;2.08;;;18.10;99.90;;;;;;5052543;28;20187;-73
2021/06/30 01:24:41;;;;;;;6.18;2.55;;;18.10;99.90;;;;;;5068113;28;20202;-72
2021/06/30 01:27:08;;;;;;;3.20;1.95;;;18.20;99.90;;;;;;5069923;28;20222;-72
2021/06/30 01:29:34;;;;;;;3.35;1.67;;;18.20;99.90;;;;;;5051903;28;20213;-72
2021/06/30 01:32:01;;;;;;;4.32;1.85;;;18.30;99.90;;;;;;5055536;28;20218;-73
2021/06/30 01:34:28;;;;;;;6.80;2.08;;;18.20;99.90;;;;;;5070753;28;20204;-73
2021/06/30 01:36:56;;;;;;;9.93;2.50;;;18.10;99.90;;;;;;5071594;28;20281;-73
2021/06/30 01:39:25;;;;;;;5.75;2.25;;;18.10;99.90;;;;;;5066467;28;20211;-74
2021/06/30 01:41:53;;;;;;;7.60;2.65;;;18.10;99.90;;;;;;5071195;28;20649;-74
2021/06/30 01:44:20;;;;;;;10.32;2.70;;;17.90;99.90;;;;;;5070088;28;20202;-75
2021/06/30 01:46:48;;;;;;;7.70;2.47;;;17.80;99.90;;;;;;5069849;28;20230;-75
2021/06/30 01:49:15;;;;;;;8.90;2.80;;;17.70;99.90;;;;;;5068696;28;20202;-74
2021/06/30 01:51:42;;;;;;;9.70;2.55;;;17.60;99.90;;;;;;5068945;28;20202;-74
2021/06/30 01:54:12;;;;;;;4.38;2.65;;;17.60;99.90;;;;;;5069476;28;20210;-74
2021/06/30 01:56:39;;;;;;;5.03;2.90;;;17.50;99.90;;;;;;5070273;28;20195;-73
2021/06/30 01:59:09;;;;;;;4.85;2.90;;;17.70;99.90;;;;;;5070191;28;20238;-73
2021/06/30 02:01:36;;;;;;;7.32;3.50;;;17.80;99.90;;;;;;5071138;28;20206;-73
2021/06/30 02:04:03;;;;;;;14.45;5.40;;;17.70;99.90;;;;;;5070357;28;20672;-72
2021/06/30 02:06:37;;;;;;;8.20;3.78;;;17.80;99.90;;;;;;5069458;28;20237;-73
2021/06/30 02:09:04;;;;;;;7.85;4.20;;;17.60;99.90;;;;;;5070375;28;20649;-73
2021/06/30 02:11:31;;;;;;;6.03;3.78;;;17.80;99.90;;;;;;5070355;28;20202;-72
2021/06/30 02:13:58;;;;;;;6.35;3.38;;;17.60;99.90;;;;;;5062600;28;20654;-73
2021/06/30 02:16:27;;;;;;;5.40;3.50;;;17.70;99.90;;;;;;5067713;28;20202;-73
2021/06/30 02:18:54;;;;;;;6.15;3.75;;;17.50;99.90;;;;;;5069098;28;20225;-73
2021/06/30 02:21:21;;;;;;;3.55;3.05;;;17.60;99.90;;;;;;5067240;28;20204;-72
2021/06/30 02:23:48;;;;;;;4.95;2.78;;;17.60;99.90;;;;;;5066671;28;20205;-73
2021/06/30 02:26:15;;;;;;;4.05;3.08;;;17.60;99.90;;;;;;5075634;28;20229;-73
2021/06/30 02:28:42;;;;;;;4.07;2.95;;;17.50;99.90;;;;;;5074031;28;20209;-73
2021/06/30 02:31:09;;;;;;;3.78;3.05;;;17.60;99.90;;;;;;5074301;28;20682;-73
2021/06/30 02:33:37;;;;;;;3.40;2.90;;;17.60;99.90;;;;;;5075142;28;20202;-73
2021/06/30 02:36:04;;;;;;;4.00;2.78;;;17.50;99.90;;;;;;5074422;28;20202;-73
2021/06/30 02:38:31;;;;;;;4.43;2.90;;;17.40;99.90;;;;;;5078149;28;20228;-73
2021/06/30 02:40:58;;;;;;;5.35;2.95;;;17.30;99.90;;;;;;5074350;28;20688;-73
2021/06/30 02:43:25;;;;;;;4.45;2.70;;;17.30;99.90;;;;;;5074491;28;20578;-73
2021/06/30 02:45:52;;;;;;;3.85;2.88;;;17.20;99.90;;;;;;5073294;28;20209;-73
2021/06/30 02:48:19;;;;;;;3.75;3.10;;;17.40;99.90;;;;;;5074594;28;20582;-73
2021/06/30 02:50:47;;;;;;;7.10;2.92;;;17.30;99.90;;;;;;5073530;28;20289;-73
2021/06/30 02:53:15;;;;;;;7.32;3.47;;;17.40;99.90;;;;;;5074298;28;20212;-73
2021/06/30 02:55:42;;;;;;;4.40;3.17;;;17.30;99.90;;;;;;5073804;28;20708;-72
2021/06/30 02:58:09;;;;;;;5.22;3.30;;;17.30;99.90;;;;;;5072505;28;20198;-73
2021/06/30 03:00:36;;;;;;;5.15;3.05;;;17.30;99.90;;;;;;5073745;28;20217;-72
2021/06/30 03:03:03;;;;;;;6.22;3.30;;;17.20;99.90;;;;;;5074313;28;20221;-72
2021/06/30 03:05:30;;;;;;;4.10;3.08;;;17.10;99.90;;;;;;5075147;28;20731;-72
2021/06/30 03:07:58;;;;;;;5.85;3.10;;;17.20;99.90;;;;;;5074843;28;20222;-73
2021/06/30 03:10:25;;;;;;;6.28;3.35;;;17.30;99.90;;;;;;5074433;28;20553;-73
2021/06/30 03:12:52;;;;;;;3.33;2.95;;;17.20;99.90;;;;;;5074768;28;20678;-73
2021/06/30 03:15:19;;;;;;;4.10;2.90;;;17.30;99.90;;;;;;5074501;28;20206;-73
2021/06/30 03:17:46;;;;;;;5.00;3.10;;;17.30;99.90;;;;;;5074923;28;20198;-73
2021/06/30 03:20:15;;;;;;;4.82;2.75;;;17.30;99.90;;;;;;5074004;28;20202;-73
2021/06/30 03:22:43;;;;;;;4.22;2.90;;;17.30;99.90;;;;;;5074677;28;20206;-74
2021/06/30 03:25:13;;;;;;;5.88;3.17;;;17.30;99.90;;;;;;5074477;28;20297;-74
2021/06/30 03:27:41;;;;;;;4.13;3.38;;;17.30;99.90;;;;;;5074430;28;20213;-74
2021/06/30 03:30:09;;;;;;;6.20;4.22;;;17.20;99.90;;;;;;5073927;28;20553;-74
2021/06/30 03:32:37;;;;;;;3.70;3.30;;;17.20;99.90;;;;;;5074539;28;20567;-73
2021/06/30 03:35:05;;;;;;;6.57;3.83;;;17.20;99.90;;;;;;5074167;28;20206;-74
2021/06/30 03:37:32;;;;;;;6.53;4.22;;;17.20;99.90;;;;;;5074320;28;20491;-74
2021/06/30 03:39:58;;;;;;;6.53;4.32;;;17.20;99.90;;;;;;5073694;28;20238;-74
2021/06/30 03:42:27;;;;;;;10.23;5.32;;;17.10;99.90;;;;;;5074029;28;20206;-74
2021/06/30 03:44:54;;;;;;;7.18;5.20;;;17.20;99.90;;;;;;5074290;28;20563;-75
2021/06/30 03:47:21;;;;;;;6.70;4.20;;;17.30;99.90;;;;;;5074151;28;20309;-75
2021/06/30 03:49:47;;;;;;;6.57;4.75;;;17.30;99.90;;;;;;5074036;28;20208;-74
2021/06/30 03:52:14;;;;;;;4.78;3.88;;;17.40;99.90;;;;;;5073786;28;20213;-75
2021/06/30 03:54:41;;;;;;;7.95;4.35;;;17.40;99.90;;;;;;5073958;28;20584;-75
2021/06/30 03:57:08;;;;;;;7.57;4.50;;;17.40;99.90;;;;;;5073944;28;20198;-75
2021/06/30 03:59:36;;;;;;;7.65;5.00;;;17.40;99.90;;;;;;5073573;28;20660;-74
2021/06/30 04:02:03;;;;;;;7.38;4.18;;;17.40;99.90;;;;;;5072568;28;20198;-75
2021/06/30 04:04:30;;;;;;;7.70;5.22;;;17.40;99.90;;;;;;5067523;28;20207;-75
2021/06/30 04:06:57;;;;;;;7.10;5.38;;;17.30;99.90;;;;;;5073277;28;20217;-74
2021/06/30 04:09:24;;;;;;;5.90;4.80;;;17.30;99.90;;;;;;5072808;28;20674;-75
2021/06/30 04:11:51;;;;;;;7.82;5.18;;;17.40;99.90;;;;;;5072541;28;20203;-75
2021/06/30 04:14:19;;;;;;;9.68;5.25;;;17.30;99.90;;;;;;5073145;28;20316;-76
2021/06/30 04:16:47;;;;;;;7.50;5.45;;;17.40;99.90;;;;;;5072850;28;20199;-75
2021/06/30 04:19:14;;;;;;;6.53;5.68;;;17.30;99.90;;;;;;5070450;28;20256;-75
2021/06/30 04:21:41;;;;;;;9.35;6.45;;;17.20;99.90;;;;;;5072486;28;20285;-75
2021/06/30 04:24:08;;;;;;;7.45;5.88;;;17.10;99.90;;;;;;5072205;28;20194;-74
2021/06/30 04:26:35;;;;;;;7.90;6.30;;;17.30;99.90;;;;;;5074459;28;20202;-75
2021/06/30 04:29:03;;;;;;;9.50;6.40;;;17.40;99.90;;;;;;5072149;28;20206;-75
2021/06/30 04:31:30;;;;;;;9.90;6.53;;;17.50;99.90;;;;;;5071648;28;20206;-74
2021/06/30 04:33:58;;;;;;;7.80;6.50;;;17.30;99.90;;;;;;5072582;28;20194;-74
2021/06/30 04:36:25;;;;;;;7.88;7.03;;;17.40;99.90;;;;;;5080615;28;20206;-73
2021/06/30 04:38:52;;;;;;;9.63;6.72;;;17.30;99.90;;;;;;5077061;28;20210;-73
2021/06/30 04:41:19;;;;;;;9.50;7.07;;;17.30;99.90;;;;;;5071410;28;20202;-72
2021/06/30 04:43:45;;;;;;;10.02;7.18;;;17.40;99.90;;;;;;5072195;28;20209;-73
2021/06/30 04:46:12;;;;;;;10.07;6.80;;;17.50;99.90;;;;;;5071753;28;20198;-73
2021/06/30 04:48:39;;;;;;;9.95;7.30;;;17.40;99.90;;;;;;5071737;28;20233;-73
2021/06/30 04:51:08;;;;;;;9.05;6.82;;;17.40;99.90;;;;;;5073276;28;20648;-73
2021/06/30 04:53:35;;;;;;;13.55;6.72;;;17.30;99.90;;;;;;5071989;28;20216;-73
2021/06/30 04:56:01;;;;;;;11.50;7.53;;;17.40;99.90;;;;;;5073342;28;20285;-73
2021/06/30 04:58:28;;;;;;;8.05;6.88;;;17.40;99.90;;;;;;5073787;28;20698;-73
2021/06/30 05:00:56;;;;;;;9.65;6.57;;;17.40;99.90;;;;;;5071293;28;20202;-73
2021/06/30 05:03:26;;;;;;;11.77;7.55;;;17.40;99.90;;;;;;5070804;28;20199;-73
2021/06/30 05:05:54;;;;;;;10.02;6.85;;;17.30;99.90;;;;;;5076091;28;20202;-73
2021/06/30 05:08:22;;;;;;;10.85;7.75;;;17.50;99.90;;;;;;5071260;28;20287;-73
2021/06/30 05:10:49;;;;;;;10.90;7.53;;;17.40;99.90;;;;;;5071419;28;20602;-73
2021/06/30 05:13:16;;;;;;;11.30;8.55;;;17.50;99.90;;;;;;5071919;28;20297;-73
2021/06/30 05:15:43;;;;;;;15.65;8.07;;;17.50;99.90;;;;;;5072383;28;20583;-73
2021/06/30 05:18:11;;;;;;;12.93;7.80;;;17.60;99.90;;;;;;5070040;28;20206;-73
2021/06/30 05:20:38;;;;;;;13.20;8.82;;;17.50;99.90;;;;;;5073373;28;20388;-73
2021/06/30 05:23:04;;;;;;;14.93;9.57;;;17.40;99.90;;;;;;5072188;28;20590;-73
2021/06/30 05:25:33;;;;;;;12.10;8.35;;;17.50;99.90;;;;;;5070628;28;20213;-73
2021/06/30 05:27:59;;;;;;;15.82;9.60;;;17.40;99.90;;;;;;5072206;28;20222;-73
2021/06/30 05:30:26;;;;;;;12.27;8.70;;;17.50;99.90;;;;;;5069959;28;20202;-73
2021/06/30 05:32:53;;;;;;;13.40;9.40;;;17.40;99.90;;;;;;5071808;28;20212;-73
2021/06/30 05:35:20;;;;;;;13.43;9.05;;;17.40;99.90;;;;;;5057874;28;20229;-73
2021/06/30 05:37:47;;;;;;;12.70;9.30;;;17.40;99.90;;;;;;5071324;28;20230;-73
2021/06/30 05:40:14;;;;;;;14.70;9.38;;;17.40;99.90;;;;;;5070804;28;20206;-73
2021/06/30 05:42:43;;;;;;;13.70;9.20;;;17.40;99.90;;;;;;5072575;28;20292;-73
2021/06/30 05:45:15;;;;;;;15.18;10.43;;;17.40;99.90;;;;;;5071023;28;20202;-73
2021/06/30 05:47:43;;;;;;;14.48;9.75;;;17.40;99.90;;;;;;5070399;28;20245;-73
2021/06/30 05:50:11;;;;;;;14.55;9.75;;;17.30;99.90;;;;;;5070627;28;20282;-73
2021/06/30 05:52:39;;;;;;;15.73;9.77;;;17.40;99.90;;;;;;5070858;28;20212;-73
2021/06/30 05:55:07;;;;;;;12.40;9.55;;;17.30;99.90;;;;;;5071050;28;20212;-72
2021/06/30 05:57:35;;;;;;;17.95;10.77;;;17.40;99.90;;;;;;5070334;28;20198;-72
2021/06/30 06:00:05;;;;;;;16.63;10.65;;;17.30;99.90;;;;;;5056427;28;20198;-73
2021/06/30 06:02:32;;;;;;;19.30;11.93;;;17.30;99.90;;;;;;5070847;28;20209;-73
2021/06/30 06:04:59;;;;;;;18.48;10.73;;;17.20;99.90;;;;;;5070755;28;20213;-73
2021/06/30 06:07:26;;;;;;;17.20;11.32;;;17.20;99.90;;;;;;5067796;28;20228;-73
2021/06/30 06:09:53;;;;;;;16.08;11.40;;;17.10;99.90;;;;;;5066974;28;20201;-73
2021/06/30 06:12:20;;;;;;;16.48;11.43;;;17.20;99.90;;;;;;5068884;28;20210;-73
2021/06/30 06:14:46;;;;;;;15.23;10.50;;;17.20;99.90;;;;;;5070042;28;20209;-73
2021/06/30 06:17:15;;;;;;;15.50;10.98;;;17.20;99.90;;;;;;5072800;28;20205;-73
2021/06/30 06:19:41;;;;;;;17.08;12.00;;;17.10;99.90;;;;;;5070716;28;20209;-78
2021/06/30 06:22:08;;;;;;;15.98;10.25;;;17.00;99.90;;;;;;5070944;28;20202;-78
2021/06/30 06:24:35;;;;;;;17.50;11.02;;;17.10;99.90;;;;;;5071174;28;20202;-78
2021/06/30 06:27:02;;;;;;;16.23;11.13;;;17.10;99.90;;;;;;5070401;28;20198;-77
2021/06/30 06:29:29;;;;;;;17.98;12.00;;;17.10;99.90;;;;;;5070636;28;20205;-78
2021/06/30 06:31:56;;;;;;;16.38;10.80;;;17.10;99.90;;;;;;5070346;28;20205;-77
2021/06/30 06:34:24;;;;;;;18.52;11.07;;;17.20;99.90;;;;;;5070316;28;20213;-77
2021/06/30 06:36:51;;;;;;;16.55;10.63;;;17.00;99.90;;;;;;5070148;28;20194;-77
2021/06/30 06:39:20;;;;;;;15.70;10.70;;;17.10;99.90;;;;;;5070765;28;20659;-78
2021/06/30 06:41:48;;;;;;;15.40;9.90;;;17.10;99.90;;;;;;5069479;28;20216;-77
2021/06/30 06:44:15;;;;;;;15.07;10.27;;;17.00;99.90;;;;;;5070123;28;20514;-78
2021/06/30 06:46:43;;;;;;;12.60;8.45;;;17.00;99.90;;;;;;5066689;28;20203;-78
2021/06/30 06:49:10;;;;;;;13.85;8.98;;;17.00;99.90;;;;;;5061296;28;20250;-78
2021/06/30 06:51:39;;;;;;;11.68;7.55;;;17.00;99.90;;;;;;5083857;28;20300;-77
2021/06/30 06:54:07;;;;;;;13.18;9.27;;;17.10;99.90;;;;;;5069700;28;20585;-78
2021/06/30 06:56:35;;;;;;;14.05;9.18;;;17.00;99.90;;;;;;5069497;28;20408;-78
2021/06/30 06:59:02;;;;;;;14.48;8.85;;;17.10;99.90;;;;;;5070453;28;20206;-78
2021/06/30 07:01:28;;;;;;;15.55;8.45;;;17.10;99.90;;;;;;5069692;28;20202;-78
2021/06/30 07:03:55;;;;;;;13.25;8.63;;;17.00;99.90;;;;;;5070305;28;20589;-78
2021/06/30 07:06:22;;;;;;;13.70;8.27;;;17.00;99.90;;;;;;5070482;28;20628;-78
2021/06/30 07:08:51;;;;;;;12.77;8.48;;;17.10;99.90;;;;;;5073854;28;20555;-78
2021/06/30 07:11:18;;;;;;;16.75;8.30;;;17.10;99.90;;;;;;5073540;28;20202;-78
2021/06/30 07:13:46;;;;;;;13.85;9.10;;;17.10;99.90;;;;;;5074560;28;20210;-78
2021/06/30 07:16:14;;;;;;;15.18;8.75;;;17.10;99.90;;;;;;5071082;28;20203;-78
2021/06/30 07:18:40;;;;;;;14.38;9.13;;;17.10;99.90;;;;;;5075249;28;20194;-78
2021/06/30 07:21:08;;;;;;;15.60;8.30;;;17.10;99.90;;;;;;5073643;28;20706;-78
2021/06/30 07:23:35;;;;;;;14.30;8.65;;;17.10;99.90;;;;;;5087743;28;20202;-78
2021/06/30 07:26:04;;;;;;;13.75;8.55;;;17.10;99.90;;;;;;5073491;28;20581;-78
2021/06/30 07:28:31;;;;;;;14.02;8.13;;;17.10;99.90;;;;;;5073213;28;20214;-78
2021/06/30 07:30:58;;;;;;;14.15;8.70;;;17.20;99.90;;;;;;5075131;28;20202;-78
2021/06/30 07:33:25;;;;;;;13.48;8.10;;;17.20;99.90;;;;;;5056922;28;20217;-78
2021/06/30 07:35:52;;;;;;;13.82;8.02;;;17.00;99.90;;;;;;5053842;28;20225;-78
2021/06/30 07:38:19;;;;;;;11.18;7.50;;;17.20;99.90;;;;;;5054412;28;20199;-78
2021/06/30 07:40:45;;;;;;;13.20;8.13;;;17.20;99.90;;;;;;5053935;28;20203;-78
2021/06/30 07:43:14;;;;;;;14.80;7.45;;;17.20;99.90;;;;;;5054216;28;20207;-78
2021/06/30 07:45:40;;;;;;;12.48;7.50;;;17.10;99.90;;;;;;5054926;28;20213;-78
2021/06/30 07:48:08;;;;;;;14.13;8.20;;;17.20;99.90;;;;;;5053892;28;20589;-78
2021/06/30 07:50:35;;;;;;;12.15;7.40;;;17.20;99.90;;;;;;5053608;28;20207;-78
2021/06/30 07:53:02;;;;;;;13.35;8.32;;;17.20;99.90;;;;;;5054082;28;20215;-78
2021/06/30 07:55:29;;;;;;;9.57;7.03;;;17.20;99.90;;;;;;5054120;28;20209;-78
2021/06/30 07:57:56;;;;;;;12.93;8.23;;;17.40;99.90;;;;;;5062631;28;20564;-78
2021/06/30 08:00:24;;;;;;;11.40;7.55;;;17.40;99.90;;;;;;5073053;28;20198;-78
2021/06/30 08:02:51;;;;;;;11.48;8.00;;;17.40;99.90;;;;;;5073951;28;20293;-78
2021/06/30 08:05:18;;;;;;;13.90;8.15;;;17.40;99.90;;;;;;5073842;28;20289;-78
2021/06/30 08:07:45;;;;;;;13.32;8.75;;;17.40;99.90;;;;;;5073878;28;20581;-78
2021/06/30 08:10:12;;;;;;;12.25;7.72;;;17.40;99.90;;;;;;5073331;28;20671;-78
2021/06/30 08:12:39;;;;;;;13.55;7.70;;;17.40;99.90;;;;;;5073957;28;20198;-78
2021/06/30 08:15:08;;;;;;;11.95;7.38;;;17.40;99.90;;;;;;5073412;28;20198;-78
2021/06/30 08:17:36;;;;;;;12.63;7.97;;;17.40;99.90;;;;;;5073657;28;20210;-78
2021/06/30 08:20:04;;;;;;;9.80;6.50;;;17.50;99.90;;;;;;5072116;28;20208;-78
2021/06/30 08:22:31;;;;;;;9.02;6.43;;;17.50;99.90;;;;;;5073532;28;20202;-78
2021/06/30 08:24:58;;;;;;;8.98;5.93;;;17.50;99.90;;;;;;5071830;28;20206;-78
2021/06/30 08:27:25;;;;;;;8.73;5.85;;;17.50;99.90;;;;;;5070178;28;20207;-78
2021/06/30 08:29:52;;;;;;;8.52;6.28;;;17.50;99.90;;;;;;5070984;28;20761;-78
2021/06/30 08:32:21;;;;;;;7.95;5.55;;;17.60;99.90;;;;;;5072646;28;20680;-78
2021/06/30 08:34:49;;;;;;;10.85;5.47;;;17.50;99.90;;;;;;5068612;28;20232;-78
2021/06/30 08:37:18;;;;;;;9.85;5.07;;;17.50;99.90;;;;;;5066635;28;20285;-78
2021/06/30 08:39:45;;;;;;;8.23;5.60;;;17.50;99.90;;;;;;5064767;28;20205;-78
2021/06/30 08:42:12;;;;;;;9.45;6.03;;;17.60;99.90;;;;;;5065728;28;20228;-78
2021/06/30 08:44:39;;;;;;;10.05;5.50;;;17.60;99.90;;;;;;5072073;28;20206;-78
2021/06/30 08:47:07;;;;;;;9.88;5.55;;;17.60;99.90;;;;;;5071660;28;20208;-78
2021/06/30 08:49:35;;;;;;;7.00;5.38;;;17.50;99.90;;;;;;5066025;28;20310;-78
2021/06/30 08:52:06;;;;;;;7.55;5.18;;;17.50;99.90;;;;;;5072551;28;20206;-78
2021/06/30 08:54:33;;;;;;;7.63;5.05;;;17.50;99.90;;;;;;5071476;28;20208;-78
2021/06/30 08:57:01;;;;;;;8.15;5.32;;;17.50;99.90;;;;;;5071739;28;20293;-78
2021/06/30 08:59:28;;;;;;;7.28;5.63;;;17.60;99.90;;;;;;5070573;28;20208;-78
2021/06/30 09:01:55;;;;;;;10.00;5.75;;;17.60;99.90;;;;;;5070594;28;20238;-78
2021/06/30 09:04:22;;;;;;;8.68;6.25;;;17.60;99.90;;;;;;5071728;28;20293;-78
2021/06/30 09:06:49;;;;;;;10.32;6.13;;;17.70;99.90;;;;;;5072129;28;20673;-78
2021/06/30 09:09:17;;;;;;;7.72;5.60;;;17.60;99.90;;;;;;5072094;28;20314;-78
2021/06/30 09:11:53;;;;;;;9.15;5.85;;;17.70;99.90;;;;;;5069558;28;20209;-78
2021/06/30 09:14:24;;;;;;;6.90;5.43;;;17.80;99.90;;;;;;5072150;28;20204;-77
2021/06/30 09:16:57;;;;;;;7.15;5.60;;;17.60;99.90;;;;;;5074282;28;20202;-77
2021/06/30 09:19:47;;;;;;;9.40;5.43;;;17.80;99.90;;;;;;5072053;28;20222;-77
2021/06/30 09:22:15;;;;;;;9.90;6.13;;;17.60;99.90;;;;;;5078177;28;20627;-77
2021/06/30 09:24:43;;;;;;;9.32;6.20;;;17.80;99.90;;;;;;5071013;28;20656;-77
2021/06/30 09:27:10;;;;;;;7.35;5.68;;;17.90;99.90;;;;;;5071656;28;20202;-76
2021/06/30 09:29:41;;;;;;;9.15;5.78;;;17.90;99.90;;;;;;5069355;28;20219;-76
2021/06/30 09:32:11;;;;;;;9.98;6.97;;;17.90;99.90;;;;;;5068114;28;20602;-76
2021/06/30 09:34:38;;;;;;;9.00;5.70;;;18.00;99.90;;;;;;5064443;28;20666;-76
2021/06/30 09:37:07;;;;;;;9.68;6.32;;;18.10;99.90;;;;;;5069578;28;20206;-76
2021/06/30 09:39:39;;;;;;;10.52;6.53;;;18.00;99.90;;;;;;5071320;28;20190;-75
2021/06/30 09:42:09;;;;;;;9.70;6.57;;;18.10;99.90;;;;;;5068867;28;20293;-77
2021/06/30 09:44:39;;;;;;;9.40;6.05;;;18.10;99.90;;;;;;5070509;28;20220;-76
2021/06/30 09:47:07;;;;;;;8.93;6.38;;;18.10;99.90;;;;;;5070525;28;20209;-76
2021/06/30 09:49:36;;;;;;;8.57;6.30;;;18.30;99.90;;;;;;5070392;28;20225;-76
2021/06/30 09:52:09;;;;;;;9.43;6.90;;;18.30;99.90;;;;;;5071018;28;20214;-76
2021/06/30 09:54:37;;;;;;;9.05;6.35;;;18.40;99.90;;;;;;5071465;28;20664;-76
2021/06/30 09:57:07;;;;;;;9.48;7.10;;;18.30;99.90;;;;;;5069130;28;20864;-76
2021/06/30 09:59:37;;;;;;;11.43;7.25;;;18.40;99.90;;;;;;5070284;28;20194;-77
2021/06/30 10:02:06;;;;;;;9.10;6.60;;;18.40;99.90;;;;;;5070766;28;20206;-76
2021/06/30 10:04:35;;;;;;;9.88;7.30;;;18.40;99.90;;;;;;5071311;28;20202;-76
2021/06/30 10:07:04;;;;;;;9.27;7.05;;;18.60;99.90;;;;;;5069704;28;20728;-76
2021/06/30 10:09:32;;;;;;;11.75;7.75;;;18.40;99.90;;;;;;5071214;28;20228;-76
2021/06/30 10:12:04;;;;;;;12.15;7.25;;;18.40;99.90;;;;;;5069418;28;20199;-76
2021/06/30 10:14:32;;;;;;;10.77;7.32;;;18.60;99.90;;;;;;5067056;28;20198;-76
2021/06/30 10:17:01;;;;;;;9.93;6.28;;;18.30;99.90;;;;;;5063626;28;20683;-76
2021/06/30 10:19:28;;;;;;;8.63;6.55;;;18.20;99.90;;;;;;5070918;28;20275;-75
2021/06/30 10:21:56;;;;;;;10.18;7.30;;;18.30;99.90;;;;;;5069399;28;20688;-75
2021/06/30 10:24:23;;;;;;;10.65;7.47;;;18.50;99.90;;;;;;5068860;28;20657;-75
2021/06/30 10:26:51;;;;;;;9.57;7.53;;;18.40;99.90;;;;;;5069616;28;20202;-75
2021/06/30 10:29:18;;;;;;;12.15;8.15;;;18.40;99.90;;;;;;5068090;28;20222;-75
2021/06/30 10:31:48;;;;;;;13.02;9.00;;;18.20;99.90;;;;;;5064840;28;20297;-76
2021/06/30 10:34:16;;;;;;;16.02;9.60;;;18.10;99.90;;;;;;5070109;28;20554;-76
2021/06/30 10:36:53;;;;;;;16.00;10.82;;;18.30;99.90;;;;;;5070273;28;20558;-75
2021/06/30 10:39:41;;;;;;;16.00;10.90;;;18.30;99.90;;;;;;5070502;28;20204;-75
2021/06/30 10:42:18;;;;;;;14.75;11.13;;;18.30;99.90;;;;;;5058988;28;20296;-76
2021/06/30 10:44:50;;;;;;;18.10;12.10;;;18.40;99.90;;;;;;5074261;28;20644;-75
2021/06/30 10:47:37;;;;;;;19.60;12.20;;;18.20;99.90;;;;;;5075163;28;20655;-76
2021/06/30 10:50:34;;;;;;;21.23;12.43;;;18.20;99.90;;;;;;5074298;28;20489;-76
2021/06/30 10:53:37;;;;;;;16.52;11.55;;;18.30;99.90;;;;;;5074834;28;20217;-77
2021/06/30 10:56:09;;;;;;;16.35;12.07;;;18.40;99.90;;;;;;5074676;28;20655;-78
2021/06/30 10:58:36;;;;;;;19.30;13.15;;;18.30;99.90;;;;;;5074463;28;20202;-77
2021/06/30 11:01:15;;;;;;;18.58;12.38;;;18.40;99.90;;;;;;5074462;28;20209;-78
2021/06/30 11:03:48;;;;;;;19.05;13.07;;;18.20;99.90;;;;;;5075039;28;20202;-78
2021/06/30 11:06:28;;;;;;;16.75;12.23;;;18.40;99.90;;;;;;5074839;28;20198;-77
2021/06/30 11:08:59;;;;;;;17.48;12.95;;;18.30;99.90;;;;;;5074903;28;20221;-77
2021/06/30 11:11:52;;;;;;;18.67;13.38;;;18.50;99.90;;;;;;5074270;28;20206;-73
2021/06/30 11:14:19;;;;;;;21.45;13.73;;;18.50;99.90;;;;;;5075276;28;20208;-72
2021/06/30 11:16:51;;;;;;;20.23;11.98;;;18.50;99.90;;;;;;5074900;28;20676;-73
2021/06/30 11:19:41;;;;;;;18.40;13.60;;;18.40;99.90;;;;;;5072620;28;20288;-73
2021/06/30 11:22:24;;;;;;;17.73;12.60;;;18.40;99.90;;;;;;5069840;28;20206;-73
2021/06/30 11:24:52;;;;;;;19.88;13.45;;;18.30;99.90;;;;;;5070891;28;20194;-73
2021/06/30 11:27:52;;;;;;;17.83;12.90;;;18.20;99.90;;;;;;5072209;28;20203;-72
2021/06/30 11:30:28;;;;;;;20.90;13.48;;;18.30;99.90;;;;;;5073257;28;20222;-72
2021/06/30 11:32:55;;;;;;;19.98;12.70;;;18.50;99.90;;;;;;5076976;28;20670;-73
2021/06/30 11:35:31;;;;;;;19.55;13.23;;;18.40;99.90;;;;;;5076548;28;20212;-73
2021/06/30 11:38:12;;;;;;;18.70;13.52;;;18.30;99.90;;;;;;5073911;28;20202;-73
2021/06/30 11:40:49;;;;;;;19.33;13.57;;;18.50;99.90;;;;;;5071735;28;20194;-73
2021/06/30 11:43:19;;;;;;;19.70;13.27;;;18.50;99.90;;;;;;5071917;28;20202;-73
2021/06/30 11:45:46;;;;;;;17.48;12.48;;;18.40;99.90;;;;;;5069732;28;20206;-73
2021/06/30 11:48:15;;;;;;;17.63;12.27;;;18.30;99.90;;;;;;5070747;28;20574;-73
2021/06/30 11:50:52;;;;;;;18.00;13.57;;;18.40;99.90;;;;;;5071839;28;20607;-73
2021/06/30 11:53:36;;;;;;;18.08;11.93;;;18.70;99.90;;;;;;5071799;28;20578;-73
2021/06/30 11:56:05;;;;;;;16.83;12.27;;;18.70;99.90;;;;;;5059234;28;20202;-73
2021/06/30 11:58:43;;;;;;;15.50;10.98;;;18.60;99.90;;;;;;5069346;28;20320;-73
2021/06/30 12:01:25;;;;;;;17.58;11.80;;;18.60;99.90;;;;;;5067438;28;20625;-73
2021/06/30 12:04:08;;;;;;;16.27;11.90;;;18.60;99.90;;;;;;5068800;28;20590;-73
2021/06/30 12:06:35;;;;;;;17.23;11.98;;;18.80;99.90;;;;;;5073254;28;20221;-73
2021/06/30 12:09:12;;;;;;;18.42;11.98;;;18.80;99.90;;;;;;5072238;28;20308;-73
2021/06/30 12:11:40;;;;;;;16.95;12.73;;;19.00;99.90;;;;;;5068885;28;20206;-73
2021/06/30 12:14:09;;;;;;;16.40;12.55;;;19.10;99.90;;;;;;5070666;28;20225;-73
2021/06/30 12:16:51;;;;;;;17.02;12.80;;;19.20;99.90;;;;;;5064500;28;20205;-73
2021/06/30 12:19:20;;;;;;;16.40;11.82;;;19.00;99.90;;;;;;5069333;28;20213;-73
2021/06/30 12:21:49;;;;;;;15.38;11.63;;;18.90;99.90;;;;;;5065678;28;20221;-73
2021/06/30 12:24:22;;;;;;;17.67;12.18;;;19.10;99.90;;;;;;5073112;28;20209;-73
2021/06/30 12:26:59;;;;;;;14.25;10.77;;;19.30;99.90;;;;;;5071479;28;20212;-73
2021/06/30 12:29:26;;;;;;;14.80;11.45;;;19.20;99.90;;;;;;5070324;28;20718;-73
2021/06/30 12:31:53;;;;;;;13.13;10.48;;;19.40;99.90;;;;;;5071732;28;20206;-73
2021/06/30 12:34:21;;;;;;;11.75;9.25;;;19.40;99.90;;;;;;5074932;28;20209;-73
2021/06/30 12:36:47;;;;;;;11.55;9.18;;;19.40;99.90;;;;;;5068121;28;20217;-73
2021/06/30 12:39:24;;;;;;;10.02;8.45;;;19.50;99.90;;;;;;5074107;28;20202;-73
2021/06/30 12:41:56;;;;;;;9.38;8.30;;;19.40;99.90;;;;;;5057318;28;20634;-73
2021/06/30 12:44:23;;;;;;;11.30;8.20;;;19.30;99.90;;;;;;5067344;28;20209;-73
2021/06/30 12:47:07;;;;;;;9.85;8.48;;;19.40;99.90;;;;;;5061750;28;20206;-72
2021/06/30 12:49:34;;;;;;;11.40;8.95;;;19.50;99.90;;;;;;5050294;28;20218;-72